Time;durP1;ratioP1;P1;durP2;ratioP2;P2;SDS_P1;SDS_P2;PMS_P1;PMS_P2;Temp;Humidity;BMP_temperature;BMP_pressure;BME280_temperature;BME280_humidity;BME280_pressure;Samples;Min_cycle;Max_cycle;Signal;HPM_P1;HPM_P2
2023/01/01 00:01:40;;;;;;;144.43;43.40;;;;;;;;;;4978693;28;20401;-75
2023/01/01 00:04:11;;;;;;;205.82;48.80;;;;;;;;;;4976157;28;20035;-76
2023/01/01 00:12:20;;;;;;;316.83;53.55;;;;;;;;;;4989519;28;20047;-75
2023/01/01 00:14:46;;;;;;;338.85;60.50;;;;;;;;;;4994488;28;20046;-76
2023/01/01 00:17:12;;;;;;;318.65;60.53;;;;;;;;;;5002514;28;20037;-77
2023/01/01 00:19:38;;;;;;;242.93;53.42;;;;;;;;;;4992425;28;20556;-75
2023/01/01 00:22:04;;;;;;;243.77;59.90;;;;;;;;;;4975326;28;20049;-75
2023/01/01 00:24:30;;;;;;;266.30;57.78;;;;;;;;;;4975102;28;20026;-77
2023/01/01 00:26:55;;;;;;;195.25;53.03;;;;;;;;;;4993007;28;20040;-77
2023/01/01 00:29:21;;;;;;;303.40;58.67;;;;;;;;;;4978828;28;20122;-76
2023/01/01 00:31:49;;;;;;;338.52;58.10;;;;;;;;;;4973238;28;20515;-78
2023/01/01 00:34:14;;;;;;;341.13;53.72;;;;;;;;;;4972954;28;20039;-76
2023/01/01 00:36:40;;;;;;;237.07;48.38;;;;;;;;;;4983533;28;20461;-75
2023/01/01 00:39:06;;;;;;;183.43;48.80;;;;;;;;;;4998997;28;20038;-76
2023/01/01 00:41:32;;;;;;;140.20;43.65;;;;;;;;;;4981371;28;20034;-77
2023/01/01 00:43:58;;;;;;;184.95;46.60;;;;;;;;;;4998357;28;20133;-77
2023/01/01 00:46:25;;;;;;;210.50;47.47;;;;;;;;;;4980156;28;20094;-76
2023/01/01 00:48:51;;;;;;;203.63;47.88;;;;;;;;;;4998510;28;20175;-77
2023/01/01 00:51:17;;;;;;;252.55;48.85;;;;;;;;;;4999227;28;20022;-77
2023/01/01 00:53:42;;;;;;;279.27;53.03;;;;;;;;;;4998709;28;20088;-78
2023/01/01 00:56:08;;;;;;;191.13;46.17;;;;;;;;;;4996459;28;20403;-77
2023/01/01 00:58:34;;;;;;;264.65;52.83;;;;;;;;;;4998903;28;20034;-77
2023/01/01 01:01:00;;;;;;;251.90;48.67;;;;;;;;;;4998674;28;20428;-77
2023/01/01 01:03:29;;;;;;;214.82;46.80;;;;;;;;;;4980464;28;20038;-77
2023/01/01 01:05:57;;;;;;;275.33;53.78;;;;;;;;;;4996809;28;20523;-79
2023/01/01 01:08:24;;;;;;;245.65;47.45;;;;;;;;;;4996327;28;20096;-78
2023/01/01 01:10:51;;;;;;;172.98;46.55;;;;;;;;;;4995836;28;20448;-78
2023/01/01 01:13:17;;;;;;;313.95;59.35;;;;;;;;;;4997387;28;20046;-77
2023/01/01 01:15:43;;;;;;;245.65;52.50;;;;;;;;;;4997880;28;20105;-77
2023/01/01 01:18:09;;;;;;;190.30;44.25;;;;;;;;;;4948240;28;20096;-77
2023/01/01 01:20:34;;;;;;;173.65;44.90;;;;;;;;;;4988453;28;20022;-76
2023/01/01 01:23:00;;;;;;;149.85;41.95;;;;;;;;;;4995416;28;20404;-77
2023/01/01 01:25:26;;;;;;;183.15;47.50;;;;;;;;;;4998109;28;20021;-77
2023/01/01 01:27:52;;;;;;;137.90;40.50;;;;;;;;;;4980931;28;20527;-78
2023/01/01 01:30:17;;;;;;;155.73;42.70;;;;;;;;;;4980793;28;20022;-77
2023/01/01 01:32:43;;;;;;;171.57;42.60;;;;;;;;;;4981833;28;20041;-77
2023/01/01 01:35:09;;;;;;;127.40;39.50;;;;;;;;;;4998596;28;20069;-77
2023/01/01 01:37:36;;;;;;;108.40;38.67;;;;;;;;;;4998575;28;20055;-79
2023/01/01 01:40:03;;;;;;;200.02;42.13;;;;;;;;;;4980825;28;20077;-77
2023/01/01 01:42:29;;;;;;;216.93;52.88;;;;;;;;;;4998485;28;20089;-78
2023/01/01 01:45:07;;;;;;;158.80;39.75;;;;;;;;;;4998916;28;20059;-77
2023/01/01 01:47:48;;;;;;;198.25;38.17;;;;;;;;;;4997398;28;20074;-78
2023/01/01 01:50:31;;;;;;;195.15;45.38;;;;;;;;;;4995493;28;20412;-77
2023/01/01 01:53:22;;;;;;;131.80;33.67;;;;;;;;;;4995269;28;20034;-77
2023/01/01 01:55:59;;;;;;;171.82;37.30;;;;;;;;;;4994266;28;20436;-77
2023/01/01 01:58:27;;;;;;;155.23;37.20;;;;;;;;;;4995456;28;20066;-77
2023/01/01 02:00:53;;;;;;;177.20;37.58;;;;;;;;;;4977949;28;20065;-78
2023/01/01 02:03:29;;;;;;;131.52;36.08;;;;;;;;;;4996470;28;20480;-77
2023/01/01 02:05:56;;;;;;;201.80;39.65;;;;;;;;;;4994728;28;20038;-77
2023/01/01 02:08:22;;;;;;;199.27;42.40;;;;;;;;;;4995803;28;20034;-77
2023/01/01 02:10:48;;;;;;;186.02;36.80;;;;;;;;;;4994939;28;20062;-77
2023/01/01 02:13:14;;;;;;;139.35;35.72;;;;;;;;;;4994675;28;20034;-76
2023/01/01 02:15:51;;;;;;;150.55;35.88;;;;;;;;;;4995082;28;20034;-77
2023/01/01 02:18:29;;;;;;;120.55;33.88;;;;;;;;;;4994445;28;20048;-76
2023/01/01 02:21:16;;;;;;;183.77;37.50;;;;;;;;;;4993554;28;20042;-78
2023/01/01 02:23:54;;;;;;;118.78;33.67;;;;;;;;;;4994679;28;20049;-77
2023/01/01 02:26:44;;;;;;;81.82;30.60;;;;;;;;;;4984109;28;20135;-76
2023/01/01 02:29:19;;;;;;;127.95;31.63;;;;;;;;;;4975357;28;20540;-76
2023/01/01 02:32:21;;;;;;;87.72;30.13;;;;;;;;;;4975510;28;20035;-76
2023/01/01 02:34:53;;;;;;;216.82;35.17;;;;;;;;;;4959370;28;20452;-75
2023/01/01 02:37:21;;;;;;;134.80;31.00;;;;;;;;;;4975464;28;20066;-77
2023/01/01 02:39:53;;;;;;;168.73;33.13;;;;;;;;;;4957519;28;20328;-75
2023/01/01 02:42:22;;;;;;;175.90;34.28;;;;;;;;;;4975213;28;20109;-75
2023/01/01 02:44:52;;;;;;;151.95;32.10;;;;;;;;;;4974997;28;20027;-76
2023/01/01 02:47:19;;;;;;;89.07;28.73;;;;;;;;;;4990014;28;20058;-77
2023/01/01 02:50:07;;;;;;;85.82;28.52;;;;;;;;;;4975423;28;20029;-78
2023/01/01 02:53:05;;;;;;;147.13;34.90;;;;;;;;;;4974844;28;20059;-76
2023/01/01 02:55:49;;;;;;;114.47;33.78;;;;;;;;;;4973271;28;20142;-77
2023/01/01 03:01:20;;;;;;;137.48;34.42;;;;;;;;;;4972085;28;20050;-78
2023/01/01 03:04:12;;;;;;;81.28;29.80;;;;;;;;;;4973084;28;20031;-76
2023/01/01 03:06:43;;;;;;;93.88;33.20;;;;;;;;;;4973406;28;20039;-77
2023/01/01 03:09:29;;;;;;;91.88;29.30;;;;;;;;;;4973276;28;20042;-77
2023/01/01 03:12:09;;;;;;;100.57;31.17;;;;;;;;;;4974101;28;20831;-77
2023/01/01 03:14:45;;;;;;;117.85;29.67;;;;;;;;;;4974572;28;20054;-76
2023/01/01 03:17:29;;;;;;;70.28;28.77;;;;;;;;;;4974560;28;20086;-78
2023/01/01 03:20:00;;;;;;;73.70;26.50;;;;;;;;;;4972691;28;20053;-77
2023/01/01 03:22:32;;;;;;;130.52;30.17;;;;;;;;;;4973867;28;20042;-76
2023/01/01 03:25:13;;;;;;;82.72;30.92;;;;;;;;;;4974015;28;20031;-79
2023/01/01 03:27:45;;;;;;;75.40;27.45;;;;;;;;;;4973817;28;20031;-79
2023/01/01 03:30:13;;;;;;;89.40;27.30;;;;;;;;;;4973202;28;20037;-79
2023/01/01 03:33:02;;;;;;;86.53;27.70;;;;;;;;;;4974262;28;20054;-78
2023/01/01 03:35:39;;;;;;;65.97;26.73;;;;;;;;;;4974257;28;20078;-79
2023/01/01 03:38:13;;;;;;;77.07;27.35;;;;;;;;;;4974213;28;20113;-78
2023/01/01 03:40:42;;;;;;;159.52;31.85;;;;;;;;;;4974298;28;20042;-77
2023/01/01 03:43:33;;;;;;;127.03;31.20;;;;;;;;;;4974119;28;20038;-78
2023/01/01 03:46:03;;;;;;;149.95;30.33;;;;;;;;;;4973860;28;20026;-77
2023/01/01 03:48:54;;;;;;;155.10;34.63;;;;;;;;;;4972449;28;20030;-77
2023/01/01 03:51:24;;;;;;;95.63;28.05;;;;;;;;;;4972338;28;20116;-77
2023/01/01 03:53:52;;;;;;;87.20;28.55;;;;;;;;;;4971635;28;20031;-77
2023/01/01 03:56:40;;;;;;;94.70;28.85;;;;;;;;;;4953659;28;20023;-77
2023/01/01 03:59:32;;;;;;;92.90;28.48;;;;;;;;;;4956672;28;20108;-76
2023/01/01 04:02:02;;;;;;;91.80;27.35;;;;;;;;;;4954125;28;20053;-77
2023/01/01 04:04:29;;;;;;;78.53;28.45;;;;;;;;;;4973590;28;20049;-77
2023/01/01 04:06:57;;;;;;;148.52;29.70;;;;;;;;;;4966944;28;20039;-77
2023/01/01 04:09:28;;;;;;;99.28;26.27;;;;;;;;;;4962761;28;20031;-76
2023/01/01 04:12:06;;;;;;;95.18;24.48;;;;;;;;;;4971710;28;20125;-77
2023/01/01 04:14:35;;;;;;;95.55;25.33;;;;;;;;;;4973373;28;20089;-75
2023/01/01 04:17:03;;;;;;;80.55;25.92;;;;;;;;;;4972444;28;20019;-76
2023/01/01 04:19:29;;;;;;;68.72;23.35;;;;;;;;;;4956983;28;20031;-74
2023/01/01 04:21:55;;;;;;;108.13;25.05;;;;;;;;;;4971218;28;20425;-77
2023/01/01 04:24:22;;;;;;;66.78;24.77;;;;;;;;;;4974019;28;20049;-76
2023/01/01 04:26:49;;;;;;;126.40;27.58;;;;;;;;;;4974652;28;20021;-74
2023/01/01 04:29:15;;;;;;;137.63;26.83;;;;;;;;;;4974593;28;20049;-76
2023/01/01 04:31:41;;;;;;;119.63;26.40;;;;;;;;;;4973863;28;20030;-77
2023/01/01 04:34:07;;;;;;;117.13;26.83;;;;;;;;;;4973814;28;20120;-77
2023/01/01 04:36:34;;;;;;;132.68;28.60;;;;;;;;;;4974079;28;20102;-76
2023/01/01 04:39:00;;;;;;;122.70;28.63;;;;;;;;;;4973893;28;20042;-76
2023/01/01 04:41:26;;;;;;;82.80;27.50;;;;;;;;;;4972790;28;20037;-77
2023/01/01 04:43:52;;;;;;;77.32;25.85;;;;;;;;;;4973956;28;20118;-77
2023/01/01 04:46:20;;;;;;;117.47;30.05;;;;;;;;;;4972793;28;20053;-77
2023/01/01 04:48:45;;;;;;;60.30;24.10;;;;;;;;;;4973934;28;20043;-77
2023/01/01 04:51:15;;;;;;;82.65;27.30;;;;;;;;;;4973472;28;20473;-77
2023/01/01 04:53:42;;;;;;;121.07;29.25;;;;;;;;;;4972189;28;20497;-77
2023/01/01 04:56:11;;;;;;;174.65;30.90;;;;;;;;;;4972258;28;20093;-76
2023/01/01 04:58:38;;;;;;;156.63;28.50;;;;;;;;;;4973297;28;20047;-77
2023/01/01 05:01:04;;;;;;;228.70;31.55;;;;;;;;;;4972597;28;20035;-77
2023/01/01 05:03:30;;;;;;;189.55;27.77;;;;;;;;;;4973874;28;20076;-77
2023/01/01 05:06:01;;;;;;;175.45;31.35;;;;;;;;;;4974992;28;20026;-77
2023/01/01 05:08:35;;;;;;;172.35;31.83;;;;;;;;;;4973529;28;20039;-76
2023/01/01 05:11:07;;;;;;;168.43;32.40;;;;;;;;;;4972227;28;20485;-77
2023/01/01 05:13:34;;;;;;;102.22;29.20;;;;;;;;;;4973448;28;20038;-77
2023/01/01 05:16:04;;;;;;;100.07;26.95;;;;;;;;;;4973263;28;20034;-76
2023/01/01 05:18:32;;;;;;;62.35;26.02;;;;;;;;;;4971953;28;20062;-77
2023/01/01 05:21:02;;;;;;;60.17;25.00;;;;;;;;;;4972816;28;20030;-77
2023/01/01 05:23:29;;;;;;;77.40;25.80;;;;;;;;;;4974588;28;20066;-77
2023/01/01 05:25:55;;;;;;;62.60;25.15;;;;;;;;;;4976738;28;20027;-75
2023/01/01 05:28:22;;;;;;;61.70;24.20;;;;;;;;;;4976703;28;20031;-76
2023/01/01 05:30:52;;;;;;;65.55;24.63;;;;;;;;;;4977106;28;20031;-76
2023/01/01 05:33:19;;;;;;;64.90;23.33;;;;;;;;;;4975992;28;20065;-75
2023/01/01 05:35:45;;;;;;;65.15;24.80;;;;;;;;;;4977111;28;20058;-77
2023/01/01 05:38:11;;;;;;;69.43;25.27;;;;;;;;;;4977115;28;20038;-77
2023/01/01 05:40:40;;;;;;;50.70;22.15;;;;;;;;;;4991969;28;20027;-77
2023/01/01 05:43:06;;;;;;;60.67;24.05;;;;;;;;;;4977049;28;20126;-77
2023/01/01 05:45:32;;;;;;;46.55;23.17;;;;;;;;;;4977078;28;20022;-77
2023/01/01 05:47:58;;;;;;;103.63;24.58;;;;;;;;;;4976911;28;20070;-77
2023/01/01 05:50:24;;;;;;;101.47;27.48;;;;;;;;;;4975329;28;20030;-76
2023/01/01 05:52:51;;;;;;;96.13;25.83;;;;;;;;;;4977242;28;20030;-77
2023/01/01 05:55:17;;;;;;;48.88;21.38;;;;;;;;;;4977122;28;20385;-77
2023/01/01 05:57:43;;;;;;;57.47;21.52;;;;;;;;;;4977307;28;20034;-77
2023/01/01 06:00:09;;;;;;;74.93;22.00;;;;;;;;;;4976808;28;20105;-77
2023/01/01 06:02:35;;;;;;;46.88;22.15;;;;;;;;;;4974434;28;20050;-77
2023/01/01 06:05:04;;;;;;;113.18;26.10;;;;;;;;;;4975643;28;20042;-77
2023/01/01 06:07:32;;;;;;;104.78;26.70;;;;;;;;;;4976426;28;20058;-77
2023/01/01 06:09:58;;;;;;;83.28;24.00;;;;;;;;;;4976266;28;20030;-79
2023/01/01 06:12:24;;;;;;;47.50;22.17;;;;;;;;;;4941780;28;20050;-78
2023/01/01 06:14:50;;;;;;;79.07;24.75;;;;;;;;;;4975637;28;20501;-78
2023/01/01 06:17:16;;;;;;;66.78;24.65;;;;;;;;;;4976053;28;20038;-77
2023/01/01 06:19:41;;;;;;;84.63;24.05;;;;;;;;;;4975891;28;20038;-78
2023/01/01 06:22:07;;;;;;;72.00;23.60;;;;;;;;;;4976239;28;20031;-78
2023/01/01 06:24:33;;;;;;;92.32;26.30;;;;;;;;;;4976173;28;20023;-77
2023/01/01 06:26:59;;;;;;;92.38;27.05;;;;;;;;;;4976153;28;20042;-78
2023/01/01 06:29:24;;;;;;;106.70;26.88;;;;;;;;;;4976249;28;20110;-78
2023/01/01 06:31:50;;;;;;;94.43;24.98;;;;;;;;;;4976096;28;20034;-78
2023/01/01 06:34:16;;;;;;;64.50;24.63;;;;;;;;;;4975424;28;20031;-76
2023/01/01 06:36:42;;;;;;;65.97;23.83;;;;;;;;;;4958631;28;20034;-77
2023/01/01 06:39:08;;;;;;;85.13;23.77;;;;;;;;;;4975706;28;20027;-77
2023/01/01 06:41:34;;;;;;;62.40;23.13;;;;;;;;;;4975194;28;20031;-76
2023/01/01 06:44:00;;;;;;;83.00;23.25;;;;;;;;;;4975418;28;20035;-80
2023/01/01 06:46:31;;;;;;;84.75;22.48;;;;;;;;;;4975172;28;20045;-78
2023/01/01 06:49:06;;;;;;;78.88;23.27;;;;;;;;;;4974997;28;20038;-78
2023/01/01 06:51:36;;;;;;;56.83;23.27;;;;;;;;;;4974054;28;20042;-77
2023/01/01 06:54:04;;;;;;;50.90;23.77;;;;;;;;;;4972115;28;20038;-77
2023/01/01 06:56:31;;;;;;;47.30;22.27;;;;;;;;;;4972521;28;20027;-78
2023/01/01 06:58:57;;;;;;;68.60;22.20;;;;;;;;;;4973428;28;20022;-78
2023/01/01 07:01:28;;;;;;;72.45;23.30;;;;;;;;;;4972401;28;20027;-78
2023/01/01 07:03:57;;;;;;;74.00;24.08;;;;;;;;;;4973530;28;20078;-79
2023/01/01 07:06:24;;;;;;;100.43;24.80;;;;;;;;;;4973427;28;20051;-79
2023/01/01 07:08:50;;;;;;;77.88;25.95;;;;;;;;;;4973683;28;20030;-79
2023/01/01 07:11:16;;;;;;;81.82;24.50;;;;;;;;;;4973135;28;20061;-78
2023/01/01 07:13:43;;;;;;;69.50;25.25;;;;;;;;;;4975271;28;20484;-78
2023/01/01 07:16:09;;;;;;;57.50;24.58;;;;;;;;;;4990176;28;20031;-79
2023/01/01 07:18:35;;;;;;;55.05;23.95;;;;;;;;;;4989027;28;20040;-79
2023/01/01 07:21:05;;;;;;;87.78;27.65;;;;;;;;;;4993506;28;20026;-80
2023/01/01 07:23:34;;;;;;;58.42;24.70;;;;;;;;;;4982601;28;20034;-78
2023/01/01 07:26:00;;;;;;;88.10;24.42;;;;;;;;;;4989668;28;20022;-79
2023/01/01 07:28:26;;;;;;;74.95;23.77;;;;;;;;;;4973791;28;20042;-77
2023/01/01 07:30:53;;;;;;;63.78;22.80;;;;;;;;;;4972983;28;20019;-78
2023/01/01 07:33:23;;;;;;;80.05;25.42;;;;;;;;;;4967611;28;20481;-78
2023/01/01 07:35:49;;;;;;;75.07;25.00;;;;;;;;;;4963144;28;20039;-77
2023/01/01 07:38:15;;;;;;;102.63;26.25;;;;;;;;;;4962458;28;20039;-78
2023/01/01 07:40:41;;;;;;;57.70;24.58;;;;;;;;;;4963369;28;20438;-77
2023/01/01 07:43:08;;;;;;;68.78;26.38;;;;;;;;;;4962628;28;20043;-78
2023/01/01 07:45:35;;;;;;;53.60;25.85;;;;;;;;;;4962973;28;20018;-78
2023/01/01 07:48:01;;;;;;;58.78;25.02;;;;;;;;;;4965840;28;20042;-77
2023/01/01 07:50:30;;;;;;;58.60;23.75;;;;;;;;;;4980371;28;20022;-78
2023/01/01 07:52:56;;;;;;;64.15;25.35;;;;;;;;;;4973356;28;20034;-78
2023/01/01 07:55:23;;;;;;;65.72;26.00;;;;;;;;;;4970740;28;20078;-77
2023/01/01 07:57:49;;;;;;;52.15;23.73;;;;;;;;;;4975738;28;20054;-78
2023/01/01 08:00:17;;;;;;;55.38;23.30;;;;;;;;;;4974423;28;20101;-78
2023/01/01 08:02:45;;;;;;;62.05;26.05;;;;;;;;;;4973603;28;20047;-78
2023/01/01 08:05:11;;;;;;;58.60;24.67;;;;;;;;;;4955875;28;20093;-78
2023/01/01 08:07:37;;;;;;;61.20;25.88;;;;;;;;;;4968657;28;20030;-78
2023/01/01 08:10:05;;;;;;;66.20;26.98;;;;;;;;;;4964091;28;20027;-77
2023/01/01 08:12:32;;;;;;;71.68;27.73;;;;;;;;;;4961817;28;20420;-78
2023/01/01 08:14:58;;;;;;;64.38;27.45;;;;;;;;;;4969255;28;20070;-78
2023/01/01 08:17:24;;;;;;;67.22;23.48;;;;;;;;;;4975390;28;20042;-79
2023/01/01 08:19:51;;;;;;;50.40;21.98;;;;;;;;;;4972568;28;20118;-78
2023/01/01 08:22:17;;;;;;;58.38;24.85;;;;;;;;;;4955906;28;20042;-77
2023/01/01 08:24:44;;;;;;;47.22;22.30;;;;;;;;;;4972513;28;20078;-79
2023/01/01 08:27:14;;;;;;;81.70;23.38;;;;;;;;;;4968188;28;20066;-78
2023/01/01 08:29:44;;;;;;;83.85;25.55;;;;;;;;;;4973235;28;20061;-77
2023/01/01 08:32:13;;;;;;;62.97;25.50;;;;;;;;;;4962452;28;20027;-78
2023/01/01 08:34:38;;;;;;;91.68;28.67;;;;;;;;;;4973012;28;20477;-78
2023/01/01 08:37:05;;;;;;;79.65;23.42;;;;;;;;;;4973631;28;20081;-78
2023/01/01 08:39:31;;;;;;;98.80;25.88;;;;;;;;;;4971214;28;20070;-78
2023/01/01 08:41:57;;;;;;;64.57;22.52;;;;;;;;;;4978043;28;20026;-78
2023/01/01 08:44:23;;;;;;;78.15;26.17;;;;;;;;;;4973056;28;20027;-77
2023/01/01 08:46:52;;;;;;;77.70;29.20;;;;;;;;;;4969432;28;20053;-77
2023/01/01 08:49:18;;;;;;;53.42;23.00;;;;;;;;;;4971932;28;20023;-78
2023/01/01 08:51:44;;;;;;;56.47;23.90;;;;;;;;;;4973157;28;20045;-77
2023/01/01 08:54:09;;;;;;;56.33;24.95;;;;;;;;;;4969463;28;20031;-79
2023/01/01 08:56:40;;;;;;;61.88;25.58;;;;;;;;;;4972343;28;20031;-80
2023/01/01 08:59:06;;;;;;;59.80;25.20;;;;;;;;;;4973995;28;20035;-79
2023/01/01 09:01:32;;;;;;;65.65;28.35;;;;;;;;;;4966063;28;20409;-79
2023/01/01 09:03:59;;;;;;;67.75;27.63;;;;;;;;;;4957965;28;20067;-75
2023/01/01 09:06:26;;;;;;;154.35;27.15;;;;;;;;;;4961511;28;20109;-78
2023/01/01 09:08:52;;;;;;;67.40;23.20;;;;;;;;;;4975775;28;20114;-76
2023/01/01 09:11:24;;;;;;;54.95;23.80;;;;;;;;;;4976923;28;20134;-78
2023/01/01 09:13:51;;;;;;;61.17;23.85;;;;;;;;;;4975552;28;20035;-78
2023/01/01 09:16:16;;;;;;;114.03;24.98;;;;;;;;;;4975448;28;20027;-79
2023/01/01 09:18:44;;;;;;;69.93;24.38;;;;;;;;;;4977540;28;20144;-77
2023/01/01 09:21:10;;;;;;;59.90;24.98;;;;;;;;;;4977079;28;20464;-77
2023/01/01 09:23:37;;;;;;;65.18;28.70;;;;;;;;;;4987068;28;20038;-76
2023/01/01 09:26:08;;;;;;;61.33;27.33;;;;;;;;;;4994837;28;20370;-77
2023/01/01 09:28:36;;;;;;;78.63;27.83;;;;;;;;;;4994843;28;20058;-78
2023/01/01 09:31:05;;;;;;;71.05;26.10;;;;;;;;;;4996082;28;20476;-77
2023/01/01 09:33:35;;;;;;;80.60;29.55;;;;;;;;;;4994674;28;20039;-78
2023/01/01 09:36:31;;;;;;;75.40;30.52;;;;;;;;;;4990146;28;20023;-79
2023/01/01 09:38:58;;;;;;;74.78;32.85;;;;;;;;;;4964933;28;20085;-78
2023/01/01 09:41:42;;;;;;;92.68;33.67;;;;;;;;;;4975826;28;20023;-78
2023/01/01 09:44:40;;;;;;;104.80;35.00;;;;;;;;;;4974019;28;20035;-76
2023/01/01 09:47:26;;;;;;;87.68;35.55;;;;;;;;;;4973992;28;20054;-79
2023/01/01 09:49:56;;;;;;;81.72;35.15;;;;;;;;;;4995396;28;20034;-78
2023/01/01 09:52:22;;;;;;;104.63;39.08;;;;;;;;;;4996454;28;20123;-78
2023/01/01 09:55:02;;;;;;;109.05;41.75;;;;;;;;;;4994706;28;20026;-76
2023/01/01 09:57:30;;;;;;;97.65;36.80;;;;;;;;;;4994988;28;20052;-77
2023/01/01 09:59:58;;;;;;;99.55;40.67;;;;;;;;;;4997136;28;20038;-77
2023/01/01 10:02:47;;;;;;;99.00;39.05;;;;;;;;;;4996720;28;20042;-76
2023/01/01 10:05:59;;;;;;;113.07;41.83;;;;;;;;;;4988170;28;20077;-79
2023/01/01 10:08:47;;;;;;;129.23;43.70;;;;;;;;;;4978165;28;20038;-78
2023/01/01 10:11:38;;;;;;;117.55;44.20;;;;;;;;;;4985468;28;20050;-77
2023/01/01 10:14:37;;;;;;;123.72;45.03;;;;;;;;;;4994316;28;20041;-78
2023/01/01 10:17:35;;;;;;;121.35;45.58;;;;;;;;;;4994883;28;20054;-79
2023/01/01 10:20:06;;;;;;;132.18;44.97;;;;;;;;;;4997352;28;20072;-79
2023/01/01 10:22:42;;;;;;;121.05;43.65;;;;;;;;;;4995014;28;20030;-78
2023/01/01 10:25:19;;;;;;;115.78;44.58;;;;;;;;;;4998151;28;20121;-78
2023/01/01 10:28:02;;;;;;;110.63;39.47;;;;;;;;;;4996760;28;20153;-80
2023/01/01 10:30:30;;;;;;;104.27;38.20;;;;;;;;;;4999956;28;20041;-79
2023/01/01 10:32:58;;;;;;;101.15;39.65;;;;;;;;;;4995540;28;20100;-78
2023/01/01 10:35:56;;;;;;;132.27;48.20;;;;;;;;;;4988812;28;20035;-77
2023/01/01 10:38:24;;;;;;;123.82;44.88;;;;;;;;;;4963656;28;20126;-79
2023/01/01 10:40:54;;;;;;;111.55;39.35;;;;;;;;;;4975539;28;20054;-79
2023/01/01 10:43:20;;;;;;;108.63;41.75;;;;;;;;;;4972565;28;20046;-78
2023/01/01 10:45:52;;;;;;;95.18;31.85;;;;;;;;;;4967963;28;20023;-78
2023/01/01 10:48:18;;;;;;;77.80;33.60;;;;;;;;;;4961923;28;20050;-79
2023/01/01 10:50:47;;;;;;;81.53;33.97;;;;;;;;;;4974448;28;20033;-77
2023/01/01 10:53:31;;;;;;;66.22;28.55;;;;;;;;;;4976092;28;20174;-78
2023/01/01 10:56:16;;;;;;;83.45;34.13;;;;;;;;;;4977187;28;20503;-79
2023/01/01 10:58:53;;;;;;;71.05;30.48;;;;;;;;;;4974048;28;20093;-78
2023/01/01 11:01:23;;;;;;;71.53;30.05;;;;;;;;;;4990101;28;20049;-77
2023/01/01 11:04:08;;;;;;;69.65;29.80;;;;;;;;;;4973864;28;20042;-77
2023/01/01 11:06:40;;;;;;;83.80;35.05;;;;;;;;;;4973392;28;20031;-78
2023/01/01 11:09:24;;;;;;;79.35;35.55;;;;;;;;;;4971004;28;20042;-78
2023/01/01 11:11:56;;;;;;;97.00;37.08;;;;;;;;;;4965405;28;20572;-77
2023/01/01 11:14:47;;;;;;;112.97;41.05;;;;;;;;;;4974832;28;20039;-78
2023/01/01 11:17:22;;;;;;;92.57;38.63;;;;;;;;;;4955845;28;20039;-78
2023/01/01 11:19:49;;;;;;;110.78;41.05;;;;;;;;;;4964462;28;20030;-76
2023/01/01 11:22:39;;;;;;;95.63;42.70;;;;;;;;;;4957680;28;20027;-77
2023/01/01 11:25:27;;;;;;;133.93;53.15;;;;;;;;;;4955509;29;20031;-78
2023/01/01 11:28:21;;;;;;;96.55;40.15;;;;;;;;;;4989033;28;20377;-78
2023/01/01 11:31:17;;;;;;;98.05;41.50;;;;;;;;;;4974162;28;20035;-78
2023/01/01 11:33:46;;;;;;;137.52;52.90;;;;;;;;;;4969660;28;20050;-78
2023/01/01 11:36:33;;;;;;;120.43;48.78;;;;;;;;;;4974194;28;20043;-77
2023/01/01 11:39:25;;;;;;;157.43;62.25;;;;;;;;;;4989384;28;20035;-78
2023/01/01 11:41:55;;;;;;;147.02;58.83;;;;;;;;;;4973688;28;20489;-76
2023/01/01 11:44:39;;;;;;;122.55;47.67;;;;;;;;;;4975795;28;20106;-78
2023/01/01 11:47:27;;;;;;;141.98;58.40;;;;;;;;;;4974718;28;20488;-78
2023/01/01 11:50:01;;;;;;;162.95;65.65;;;;;;;;;;4975998;28;20162;-77
2023/01/01 11:52:36;;;;;;;157.68;62.83;;;;;;;;;;4975381;28;20125;-78
2023/01/01 11:55:36;;;;;;;159.63;64.00;;;;;;;;;;4975866;28;20031;-79
2023/01/01 11:58:35;;;;;;;154.45;60.22;;;;;;;;;;4973793;28;20041;-79
2023/01/01 12:01:21;;;;;;;139.48;57.05;;;;;;;;;;4974693;28;20444;-77
2023/01/01 12:04:08;;;;;;;138.73;55.28;;;;;;;;;;4974647;28;20054;-78
2023/01/01 12:06:47;;;;;;;150.00;58.08;;;;;;;;;;4996010;28;20033;-78
2023/01/01 12:09:35;;;;;;;153.63;60.13;;;;;;;;;;4971003;28;20031;-79
2023/01/01 12:12:23;;;;;;;154.13;57.40;;;;;;;;;;4973294;28;20055;-79
2023/01/01 12:14:59;;;;;;;148.05;59.10;;;;;;;;;;4972639;28;20050;-78
2023/01/01 12:17:37;;;;;;;150.43;59.53;;;;;;;;;;4965652;28;20035;-78
2023/01/01 12:20:22;;;;;;;145.02;58.13;;;;;;;;;;4969848;28;20393;-78
2023/01/01 12:22:48;;;;;;;102.60;45.25;;;;;;;;;;4952846;29;20432;-79
2023/01/01 12:25:18;;;;;;;103.88;44.78;;;;;;;;;;4969152;28;20054;-77
2023/01/01 12:28:12;;;;;;;99.32;44.75;;;;;;;;;;4953732;29;20043;-77
2023/01/01 12:30:54;;;;;;;115.38;50.05;;;;;;;;;;4995924;28;20097;-78
2023/01/01 12:34:03;;;;;;;84.10;38.13;;;;;;;;;;4992591;28;20134;-78
2023/01/01 12:36:34;;;;;;;110.50;42.58;;;;;;;;;;4991375;28;20039;-77
2023/01/01 12:39:29;;;;;;;76.05;37.03;;;;;;;;;;4991513;28;20061;-78
2023/01/01 12:42:31;;;;;;;57.30;30.00;;;;;;;;;;4992327;28;20519;-77
2023/01/01 12:45:03;;;;;;;56.40;28.85;;;;;;;;;;4991559;28;20027;-78
2023/01/01 12:47:54;;;;;;;56.72;30.08;;;;;;;;;;4993024;28;20038;-79
2023/01/01 12:50:27;;;;;;;62.28;31.40;;;;;;;;;;4993311;28;20034;-78
2023/01/01 12:53:32;;;;;;;63.70;31.48;;;;;;;;;;4993797;28;20414;-78
2023/01/01 12:56:28;;;;;;;55.63;26.92;;;;;;;;;;4993181;28;20507;-76
2023/01/01 12:59:03;;;;;;;61.58;30.10;;;;;;;;;;4992923;28;20042;-79
2023/01/01 13:01:32;;;;;;;81.80;37.03;;;;;;;;;;4952454;28;20397;-78
2023/01/01 13:04:28;;;;;;;87.40;41.88;;;;;;;;;;4951383;29;20023;-80
2023/01/01 13:07:06;;;;;;;75.93;36.80;;;;;;;;;;4954334;28;20031;-79
2023/01/01 13:09:38;;;;;;;64.75;29.92;;;;;;;;;;4953990;28;20070;-78
2023/01/01 13:12:13;;;;;;;71.53;36.30;;;;;;;;;;4953517;28;20051;-81
2023/01/01 13:14:44;;;;;;;62.22;31.08;;;;;;;;;;4954300;28;20489;-79
2023/01/01 13:17:20;;;;;;;77.22;36.03;;;;;;;;;;4953244;28;20042;-78
2023/01/01 13:20:07;;;;;;;66.68;32.00;;;;;;;;;;4972991;28;20090;-79
2023/01/01 13:22:32;;;;;;;57.83;28.52;;;;;;;;;;4969269;28;20051;-78
2023/01/01 13:25:10;;;;;;;77.72;35.85;;;;;;;;;;4973563;28;20042;-79
2023/01/01 13:28:02;;;;;;;79.10;37.30;;;;;;;;;;4973397;28;20500;-78
2023/01/01 13:30:34;;;;;;;74.55;32.97;;;;;;;;;;4973629;28;20620;-79
2023/01/01 13:33:29;;;;;;;57.25;26.65;;;;;;;;;;4973324;28;20504;-79
2023/01/01 13:36:10;;;;;;;54.13;27.25;;;;;;;;;;4988114;28;20046;-78
2023/01/01 13:38:49;;;;;;;72.35;30.77;;;;;;;;;;4992757;28;20030;-79
2023/01/01 13:41:24;;;;;;;59.25;28.90;;;;;;;;;;4992921;28;20034;-79
2023/01/01 13:43:51;;;;;;;68.88;30.98;;;;;;;;;;4986221;28;20058;-83
2023/01/01 13:46:30;;;;;;;58.20;27.17;;;;;;;;;;4959780;28;20035;-78
2023/01/01 13:49:14;;;;;;;75.47;27.85;;;;;;;;;;4973783;28;20507;-80
2023/01/01 13:52:11;;;;;;;57.03;26.58;;;;;;;;;;4972994;28;20038;-83
2023/01/01 13:55:12;;;;;;;59.22;26.77;;;;;;;;;;4973820;28;20093;-83
2023/01/01 13:58:08;;;;;;;42.83;23.25;;;;;;;;;;4967626;28;20476;-82
2023/01/01 14:01:01;;;;;;;65.75;27.30;;;;;;;;;;4976072;28;20038;-84
2023/01/01 14:03:33;;;;;;;69.60;30.65;;;;;;;;;;4972700;28;20050;-83
2023/01/01 14:06:13;;;;;;;57.85;26.70;;;;;;;;;;4975888;28;20031;-81
2023/01/01 14:08:40;;;;;;;52.90;26.50;;;;;;;;;;4976392;28;20037;-82
2023/01/01 14:11:20;;;;;;;58.55;27.65;;;;;;;;;;4974368;28;20428;-81
2023/01/01 14:13:46;;;;;;;61.35;28.98;;;;;;;;;;4977790;28;20038;-82
2023/01/01 14:16:14;;;;;;;50.97;25.10;;;;;;;;;;4974487;28;20511;-82
2023/01/01 14:18:49;;;;;;;153.07;27.45;;;;;;;;;;4974605;28;20043;-83
2023/01/01 14:21:18;;;;;;;55.42;24.90;;;;;;;;;;4975670;28;20058;-80
2023/01/01 14:23:53;;;;;;;52.05;26.02;;;;;;;;;;4975594;28;20033;-81
2023/01/01 14:26:24;;;;;;;62.90;27.27;;;;;;;;;;4973263;28;20034;-82
2023/01/01 14:28:55;;;;;;;184.93;32.67;;;;;;;;;;4954526;28;20560;-76
2023/01/01 14:31:30;;;;;;;69.32;30.98;;;;;;;;;;4971051;28;20122;-79
2023/01/01 14:33:57;;;;;;;62.85;28.23;;;;;;;;;;4954838;29;20457;-81
2023/01/01 14:36:30;;;;;;;88.40;36.20;;;;;;;;;;4955943;28;20039;-79
2023/01/01 14:39:02;;;;;;;96.13;35.72;;;;;;;;;;4954781;29;20126;-79
2023/01/01 14:41:36;;;;;;;99.80;36.05;;;;;;;;;;4971433;28;20034;-77
2023/01/01 14:44:11;;;;;;;150.70;41.80;;;;;;;;;;4978739;28;20031;-79
2023/01/01 14:46:45;;;;;;;125.65;38.10;;;;;;;;;;4973318;28;20031;-77
2023/01/01 14:49:18;;;;;;;112.55;33.17;;;;;;;;;;4972800;28;20067;-80
2023/01/01 14:51:48;;;;;;;106.03;35.08;;;;;;;;;;4973951;28;20078;-78
2023/01/01 14:54:18;;;;;;;83.55;32.60;;;;;;;;;;4963286;28;20074;-79